sensor_id;sensor_type;location;lat;lon;timestamp;P1;P2;P0
70520;PMS5003;58442;52.716;23.560;2023-07-31T00:01:29;9;9;7
70520;PMS5003;58442;52.716;23.560;2023-07-31T00:03:30;8;8;5
70520;PMS5003;58442;52.716;23.560;2023-07-31T00:05:32;7;7;7
70520;PMS5003;58442;52.716;23.560;2023-07-31T00:07:43;7;7;6
70520;PMS5003;58442;52.716;23.560;2023-07-31T00:09:44;7;7;6
70520;PMS5003;58442;52.716;23.560;2023-07-31T00:11:45;9;9;7
70520;PMS5003;58442;52.716;23.560;2023-07-31T00:13:47;8;8;7
70520;PMS5003;58442;52.716;23.560;2023-07-31T00:15:57;9;9;7
70520;PMS5003;58442;52.716;23.560;2023-07-31T00:18:00;7;7;5
70520;PMS5003;58442;52.716;23.560;2023-07-31T00:20:02;4;4;4
70520;PMS5003;58442;52.716;23.560;2023-07-31T00:22:04;8;8;7
70520;PMS5003;58442;52.716;23.560;2023-07-31T00:24:12;8;8;6
70520;PMS5003;58442;52.716;23.560;2023-07-31T00:26:13;6;6;5
70520;PMS5003;58442;52.716;23.560;2023-07-31T00:28:15;8;8;6
70520;PMS5003;58442;52.716;23.560;2023-07-31T00:30:16;7;7;6
70520;PMS5003;58442;52.716;23.560;2023-07-31T00:32:27;10;10;6
70520;PMS5003;58442;52.716;23.560;2023-07-31T00:34:28;7;7;6
70520;PMS5003;58442;52.716;23.560;2023-07-31T00:36:30;7;7;6
70520;PMS5003;58442;52.716;23.560;2023-07-31T00:38:31;8;8;7
70520;PMS5003;58442;52.716;23.560;2023-07-31T00:40:42;7;7;5
70520;PMS5003;58442;52.716;23.560;2023-07-31T00:42:43;9;9;8
70520;PMS5003;58442;52.716;23.560;2023-07-31T00:44:44;8;8;7
70520;PMS5003;58442;52.716;23.560;2023-07-31T00:46:46;9;9;7
70520;PMS5003;58442;52.716;23.560;2023-07-31T00:48:56;7;7;6
70520;PMS5003;58442;52.716;23.560;2023-07-31T00:50:58;6;6;5
70520;PMS5003;58442;52.716;23.560;2023-07-31T00:53:01;8;8;6
70520;PMS5003;58442;52.716;23.560;2023-07-31T00:55:03;8;8;6
70520;PMS5003;58442;52.716;23.560;2023-07-31T00:57:11;8;8;7
70520;PMS5003;58442;52.716;23.560;2023-07-31T00:59:13;8;8;6
70520;PMS5003;58442;52.716;23.560;2023-07-31T01:01:14;8;8;7
70520;PMS5003;58442;52.716;23.560;2023-07-31T01:03:16;7;7;7
70520;PMS5003;58442;52.716;23.560;2023-07-31T01:05:33;8;8;7
70520;PMS5003;58442;52.716;23.560;2023-07-31T01:12:30;7;7;7
70520;PMS5003;58442;52.716;23.560;2023-07-31T01:14:32;8;8;5
70520;PMS5003;58442;52.716;23.560;2023-07-31T01:16:34;10;10;7
70520;PMS5003;58442;52.716;23.560;2023-07-31T01:18:35;6;6;5
70520;PMS5003;58442;52.716;23.560;2023-07-31T01:20:46;7;7;5
70520;PMS5003;58442;52.716;23.560;2023-07-31T01:27:24;9;9;7
70520;PMS5003;58442;52.716;23.560;2023-07-31T01:31:44;6;6;6
70520;PMS5003;58442;52.716;23.560;2023-07-31T01:33:56;9;9;7
70520;PMS5003;58442;52.716;23.560;2023-07-31T01:36:01;6;6;6
70520;PMS5003;58442;52.716;23.560;2023-07-31T01:38:04;8;8;7
70520;PMS5003;58442;52.716;23.560;2023-07-31T01:40:06;5;5;5
70520;PMS5003;58442;52.716;23.560;2023-07-31T01:42:10;6;6;5
70520;PMS5003;58442;52.716;23.560;2023-07-31T01:44:11;8;8;7
70520;PMS5003;58442;52.716;23.560;2023-07-31T01:46:12;7;7;6
70520;PMS5003;58442;52.716;23.560;2023-07-31T01:48:14;7;7;6
70520;PMS5003;58442;52.716;23.560;2023-07-31T01:50:25;8;8;6
70520;PMS5003;58442;52.716;23.560;2023-07-31T01:52:26;7;7;6
70520;PMS5003;58442;52.716;23.560;2023-07-31T01:54:27;7;7;6
70520;PMS5003;58442;52.716;23.560;2023-07-31T01:56:29;4;4;3
70520;PMS5003;58442;52.716;23.560;2023-07-31T01:58:39;7;7;5
70520;PMS5003;58442;52.716;23.560;2023-07-31T02:00:41;9;9;8
70520;PMS5003;58442;52.716;23.560;2023-07-31T02:02:42;5;5;5
70520;PMS5003;58442;52.716;23.560;2023-07-31T02:04:43;7;7;5
70520;PMS5003;58442;52.716;23.560;2023-07-31T02:06:54;8;8;6
70520;PMS5003;58442;52.716;23.560;2023-07-31T02:08:55;5;5;5
70520;PMS5003;58442;52.716;23.560;2023-07-31T02:10:57;4;4;3
70520;PMS5003;58442;52.716;23.560;2023-07-31T02:12:58;7;7;5
70520;PMS5003;58442;52.716;23.560;2023-07-31T02:15:09;7;7;6
70520;PMS5003;58442;52.716;23.560;2023-07-31T02:17:11;8;8;6
70520;PMS5003;58442;52.716;23.560;2023-07-31T02:19:12;8;8;6
70520;PMS5003;58442;52.716;23.560;2023-07-31T02:21:13;8;8;6
70520;PMS5003;58442;52.716;23.560;2023-07-31T02:23:24;8;8;7
70520;PMS5003;58442;52.716;23.560;2023-07-31T02:25:25;8;8;6
70520;PMS5003;58442;52.716;23.560;2023-07-31T02:27:27;7;7;7
70520;PMS5003;58442;52.716;23.560;2023-07-31T02:29:28;8;8;6
70520;PMS5003;58442;52.716;23.560;2023-07-31T02:31:39;7;7;6
70520;PMS5003;58442;52.716;23.560;2023-07-31T02:33:40;9;9;7
70520;PMS5003;58442;52.716;23.560;2023-07-31T02:35:41;7;7;6
70520;PMS5003;58442;52.716;23.560;2023-07-31T02:37:43;7;7;6
70520;PMS5003;58442;52.716;23.560;2023-07-31T02:39:53;5;5;4
70520;PMS5003;58442;52.716;23.560;2023-07-31T02:41:55;8;8;7
70520;PMS5003;58442;52.716;23.560;2023-07-31T02:43:56;8;7;6
70520;PMS5003;58442;52.716;23.560;2023-07-31T02:45:59;7;7;6
70520;PMS5003;58442;52.716;23.560;2023-07-31T02:48:08;5;5;4
70520;PMS5003;58442;52.716;23.560;2023-07-31T02:50:10;6;6;6
70520;PMS5003;58442;52.716;23.560;2023-07-31T02:52:11;11;11;8
70520;PMS5003;58442;52.716;23.560;2023-07-31T02:54:12;8;8;7
70520;PMS5003;58442;52.716;23.560;2023-07-31T02:56:23;10;10;8
70520;PMS5003;58442;52.716;23.560;2023-07-31T02:58:24;8;8;7
70520;PMS5003;58442;52.716;23.560;2023-07-31T03:00:25;8;8;7
70520;PMS5003;58442;52.716;23.560;2023-07-31T03:02:27;7;7;7
70520;PMS5003;58442;52.716;23.560;2023-07-31T03:04:38;8;8;6
70520;PMS5003;58442;52.716;23.560;2023-07-31T03:06:39;8;8;5
70520;PMS5003;58442;52.716;23.560;2023-07-31T03:08:41;7;7;6
70520;PMS5003;58442;52.716;23.560;2023-07-31T03:10:42;8;8;6
70520;PMS5003;58442;52.716;23.560;2023-07-31T03:12:52;11;11;9
70520;PMS5003;58442;52.716;23.560;2023-07-31T03:14:54;8;8;7
70520;PMS5003;58442;52.716;23.560;2023-07-31T03:16:55;8;8;6
70520;PMS5003;58442;52.716;23.560;2023-07-31T03:18:56;9;9;6
70520;PMS5003;58442;52.716;23.560;2023-07-31T03:21:07;6;6;5
70520;PMS5003;58442;52.716;23.560;2023-07-31T03:23:08;9;9;7
70520;PMS5003;58442;52.716;23.560;2023-07-31T03:25:10;6;6;5
70520;PMS5003;58442;52.716;23.560;2023-07-31T03:27:11;9;9;5
70520;PMS5003;58442;52.716;23.560;2023-07-31T03:29:22;7;7;5
70520;PMS5003;58442;52.716;23.560;2023-07-31T03:31:23;8;8;6
70520;PMS5003;58442;52.716;23.560;2023-07-31T03:33:25;7;7;6
70520;PMS5003;58442;52.716;23.560;2023-07-31T03:35:26;5;5;4
70520;PMS5003;58442;52.716;23.560;2023-07-31T03:37:37;6;6;5
70520;PMS5003;58442;52.716;23.560;2023-07-31T03:39:38;7;7;5
70520;PMS5003;58442;52.716;23.560;2023-07-31T03:41:39;7;7;6
70520;PMS5003;58442;52.716;23.560;2023-07-31T03:43:41;7;7;6
70520;PMS5003;58442;52.716;23.560;2023-07-31T03:45:51;7;7;6
70520;PMS5003;58442;52.716;23.560;2023-07-31T03:47:53;9;9;7
70520;PMS5003;58442;52.716;23.560;2023-07-31T03:49:55;7;7;6
70520;PMS5003;58442;52.716;23.560;2023-07-31T03:51:56;5;5;4
70520;PMS5003;58442;52.716;23.560;2023-07-31T03:54:06;9;9;6
70520;PMS5003;58442;52.716;23.560;2023-07-31T03:56:08;7;7;6
70520;PMS5003;58442;52.716;23.560;2023-07-31T03:58:09;8;8;7
70520;PMS5003;58442;52.716;23.560;2023-07-31T04:00:11;3;3;3
70520;PMS5003;58442;52.716;23.560;2023-07-31T04:02:21;9;9;7
70520;PMS5003;58442;52.716;23.560;2023-07-31T04:04:22;5;5;4
70520;PMS5003;58442;52.716;23.560;2023-07-31T04:06:24;8;8;6
70520;PMS5003;58442;52.716;23.560;2023-07-31T04:08:25;8;8;6
70520;PMS5003;58442;52.716;23.560;2023-07-31T04:10:36;8;8;6
70520;PMS5003;58442;52.716;23.560;2023-07-31T04:12:37;9;9;7
70520;PMS5003;58442;52.716;23.560;2023-07-31T04:14:39;8;8;6
70520;PMS5003;58442;52.716;23.560;2023-07-31T04:16:40;7;7;6
70520;PMS5003;58442;52.716;23.560;2023-07-31T04:18:51;8;8;6
70520;PMS5003;58442;52.716;23.560;2023-07-31T04:20:52;5;5;4
70520;PMS5003;58442;52.716;23.560;2023-07-31T04:22:53;6;6;5
70520;PMS5003;58442;52.716;23.560;2023-07-31T04:24:55;6;6;5
70520;PMS5003;58442;52.716;23.560;2023-07-31T04:27:05;8;8;7
70520;PMS5003;58442;52.716;23.560;2023-07-31T04:29:07;5;5;4
70520;PMS5003;58442;52.716;23.560;2023-07-31T04:31:08;6;6;5
70520;PMS5003;58442;52.716;23.560;2023-07-31T04:33:09;7;7;7
70520;PMS5003;58442;52.716;23.560;2023-07-31T04:35:20;6;6;4
70520;PMS5003;58442;52.716;23.560;2023-07-31T04:37:21;7;7;5
70520;PMS5003;58442;52.716;23.560;2023-07-31T04:39:23;7;7;6
70520;PMS5003;58442;52.716;23.560;2023-07-31T04:41:24;10;10;8
70520;PMS5003;58442;52.716;23.560;2023-07-31T04:43:35;8;8;7
70520;PMS5003;58442;52.716;23.560;2023-07-31T04:45:42;6;6;4
70520;PMS5003;58442;52.716;23.560;2023-07-31T04:47:47;9;9;8
70520;PMS5003;58442;52.716;23.560;2023-07-31T04:49:48;11;11;8
70520;PMS5003;58442;52.716;23.560;2023-07-31T04:51:51;10;10;8
70520;PMS5003;58442;52.716;23.560;2023-07-31T04:53:52;8;8;5
70520;PMS5003;58442;52.716;23.560;2023-07-31T04:55:54;7;7;6
70520;PMS5003;58442;52.716;23.560;2023-07-31T04:57:55;7;7;5
70520;PMS5003;58442;52.716;23.560;2023-07-31T05:00:06;10;10;7
70520;PMS5003;58442;52.716;23.560;2023-07-31T05:02:08;7;7;6
70520;PMS5003;58442;52.716;23.560;2023-07-31T05:04:13;10;10;9
70520;PMS5003;58442;52.716;23.560;2023-07-31T05:06:15;11;11;7
70520;PMS5003;58442;52.716;23.560;2023-07-31T05:08:21;12;12;8
70520;PMS5003;58442;52.716;23.560;2023-07-31T05:10:22;13;13;10
70520;PMS5003;58442;52.716;23.560;2023-07-31T05:12:23;11;11;9
70520;PMS5003;58442;52.716;23.560;2023-07-31T05:14:25;13;13;10
70520;PMS5003;58442;52.716;23.560;2023-07-31T05:16:35;9;9;7
70520;PMS5003;58442;52.716;23.560;2023-07-31T05:18:37;13;13;10
70520;PMS5003;58442;52.716;23.560;2023-07-31T05:20:38;12;12;9
70520;PMS5003;58442;52.716;23.560;2023-07-31T05:22:39;13;13;10
70520;PMS5003;58442;52.716;23.560;2023-07-31T05:24:50;12;12;10
70520;PMS5003;58442;52.716;23.560;2023-07-31T05:26:52;9;9;8
70520;PMS5003;58442;52.716;23.560;2023-07-31T05:28:53;15;15;11
70520;PMS5003;58442;52.716;23.560;2023-07-31T05:30:58;16;16;12
70520;PMS5003;58442;52.716;23.560;2023-07-31T05:33:05;18;18;12
70520;PMS5003;58442;52.716;23.560;2023-07-31T05:35:06;16;16;11
70520;PMS5003;58442;52.716;23.560;2023-07-31T05:37:09;14;13;8
70520;PMS5003;58442;52.716;23.560;2023-07-31T05:39:12;6;6;1
70520;PMS5003;58442;52.716;23.560;2023-07-31T05:41:20;13;13;11
70520;PMS5003;58442;52.716;23.560;2023-07-31T05:43:21;14;14;11
70520;PMS5003;58442;52.716;23.560;2023-07-31T05:45:22;16;16;12
70520;PMS5003;58442;52.716;23.560;2023-07-31T05:47:23;16;15;10
70520;PMS5003;58442;52.716;23.560;2023-07-31T05:49:34;13;13;10
70520;PMS5003;58442;52.716;23.560;2023-07-31T05:51:36;14;14;11
70520;PMS5003;58442;52.716;23.560;2023-07-31T05:53:37;13;13;10
70520;PMS5003;58442;52.716;23.560;2023-07-31T05:55:41;15;15;11
70520;PMS5003;58442;52.716;23.560;2023-07-31T05:57:49;11;11;8
70520;PMS5003;58442;52.716;23.560;2023-07-31T05:59:50;18;16;11
70520;PMS5003;58442;52.716;23.560;2023-07-31T06:01:54;15;15;12
70520;PMS5003;58442;52.716;23.560;2023-07-31T06:03:55;15;15;12
70520;PMS5003;58442;52.716;23.560;2023-07-31T06:06:04;20;20;15
70520;PMS5003;58442;52.716;23.560;2023-07-31T06:08:06;14;14;10
70520;PMS5003;58442;52.716;23.560;2023-07-31T06:10:07;14;14;12
70520;PMS5003;58442;52.716;23.560;2023-07-31T06:12:09;17;17;13
70520;PMS5003;58442;52.716;23.560;2023-07-31T06:14:19;13;13;9
70520;PMS5003;58442;52.716;23.560;2023-07-31T06:16:20;14;14;11
70520;PMS5003;58442;52.716;23.560;2023-07-31T06:18:22;12;12;9
70520;PMS5003;58442;52.716;23.560;2023-07-31T06:20:23;13;13;10
70520;PMS5003;58442;52.716;23.560;2023-07-31T06:22:33;15;15;11
70520;PMS5003;58442;52.716;23.560;2023-07-31T06:24:35;16;16;13
70520;PMS5003;58442;52.716;23.560;2023-07-31T06:26:36;15;15;12
70520;PMS5003;58442;52.716;23.560;2023-07-31T06:28:37;14;14;12
70520;PMS5003;58442;52.716;23.560;2023-07-31T06:30:48;13;13;11
70520;PMS5003;58442;52.716;23.560;2023-07-31T06:32:49;12;12;10
70520;PMS5003;58442;52.716;23.560;2023-07-31T06:34:50;17;17;11
70520;PMS5003;58442;52.716;23.560;2023-07-31T06:36:52;25;24;18
70520;PMS5003;58442;52.716;23.560;2023-07-31T06:39:03;12;12;8
70520;PMS5003;58442;52.716;23.560;2023-07-31T06:41:04;13;13;11
70520;PMS5003;58442;52.716;23.560;2023-07-31T06:43:06;12;12;9
70520;PMS5003;58442;52.716;23.560;2023-07-31T06:45:08;11;11;9
70520;PMS5003;58442;52.716;23.560;2023-07-31T06:47:17;10;10;10
70520;PMS5003;58442;52.716;23.560;2023-07-31T06:49:19;15;15;12
70520;PMS5003;58442;52.716;23.560;2023-07-31T06:51:20;7;7;6
70520;PMS5003;58442;52.716;23.560;2023-07-31T06:53:21;11;9;7
70520;PMS5003;58442;52.716;23.560;2023-07-31T06:55:32;9;9;8
70520;PMS5003;58442;52.716;23.560;2023-07-31T06:57:34;8;8;8
70520;PMS5003;58442;52.716;23.560;2023-07-31T06:59:35;10;10;8
70520;PMS5003;58442;52.716;23.560;2023-07-31T07:01:36;9;9;8
70520;PMS5003;58442;52.716;23.560;2023-07-31T07:03:47;28;28;18
70520;PMS5003;58442;52.716;23.560;2023-07-31T07:05:51;28;28;16
70520;PMS5003;58442;52.716;23.560;2023-07-31T07:07:52;16;16;11
70520;PMS5003;58442;52.716;23.560;2023-07-31T07:09:53;9;9;7
70520;PMS5003;58442;52.716;23.560;2023-07-31T07:12:01;9;9;7
70520;PMS5003;58442;52.716;23.560;2023-07-31T07:14:03;12;11;9
70520;PMS5003;58442;52.716;23.560;2023-07-31T07:16:05;14;14;11
70520;PMS5003;58442;52.716;23.560;2023-07-31T07:18:06;14;14;10
70520;PMS5003;58442;52.716;23.560;2023-07-31T07:20:16;12;12;10
70520;PMS5003;58442;52.716;23.560;2023-07-31T07:22:27;11;11;9
70520;PMS5003;58442;52.716;23.560;2023-07-31T07:24:29;12;12;11
70520;PMS5003;58442;52.716;23.560;2023-07-31T07:26:30;10;10;8
70520;PMS5003;58442;52.716;23.560;2023-07-31T07:28:31;11;11;9
70520;PMS5003;58442;52.716;23.560;2023-07-31T07:30:33;8;8;7
70520;PMS5003;58442;52.716;23.560;2023-07-31T07:32:34;13;11;8
70520;PMS5003;58442;52.716;23.560;2023-07-31T07:34:37;9;9;7
70520;PMS5003;58442;52.716;23.560;2023-07-31T07:36:38;7;7;5
70520;PMS5003;58442;52.716;23.560;2023-07-31T07:38:39;10;10;8
70520;PMS5003;58442;52.716;23.560;2023-07-31T07:40:42;9;9;8
70520;PMS5003;58442;52.716;23.560;2023-07-31T07:42:51;7;7;6
70520;PMS5003;58442;52.716;23.560;2023-07-31T07:44:52;8;8;7
70520;PMS5003;58442;52.716;23.560;2023-07-31T07:46:54;8;8;8
70520;PMS5003;58442;52.716;23.560;2023-07-31T07:48:55;8;8;6
70520;PMS5003;58442;52.716;23.560;2023-07-31T07:51:06;7;7;5
70520;PMS5003;58442;52.716;23.560;2023-07-31T07:53:07;4;4;4
70520;PMS5003;58442;52.716;23.560;2023-07-31T07:55:09;8;6;5
70520;PMS5003;58442;52.716;23.560;2023-07-31T07:57:10;5;5;4
70520;PMS5003;58442;52.716;23.560;2023-07-31T07:59:21;6;6;6
70520;PMS5003;58442;52.716;23.560;2023-07-31T08:01:22;5;5;4
70520;PMS5003;58442;52.716;23.560;2023-07-31T08:03:23;7;7;6
70520;PMS5003;58442;52.716;23.560;2023-07-31T08:05:24;5;5;4
70520;PMS5003;58442;52.716;23.560;2023-07-31T08:07:35;6;6;5
70520;PMS5003;58442;52.716;23.560;2023-07-31T08:09:36;7;7;6
70520;PMS5003;58442;52.716;23.560;2023-07-31T08:11:38;6;6;4
70520;PMS5003;58442;52.716;23.560;2023-07-31T08:13:39;7;7;6
70520;PMS5003;58442;52.716;23.560;2023-07-31T08:15:50;6;6;5
70520;PMS5003;58442;52.716;23.560;2023-07-31T08:17:51;6;6;3
70520;PMS5003;58442;52.716;23.560;2023-07-31T08:19:52;5;5;5
70520;PMS5003;58442;52.716;23.560;2023-07-31T08:21:54;6;6;5
70520;PMS5003;58442;52.716;23.560;2023-07-31T08:24:04;6;6;5
70520;PMS5003;58442;52.716;23.560;2023-07-31T08:26:06;5;5;5
70520;PMS5003;58442;52.716;23.560;2023-07-31T08:28:07;6;6;6
70520;PMS5003;58442;52.716;23.560;2023-07-31T08:30:09;9;9;8
70520;PMS5003;58442;52.716;23.560;2023-07-31T08:32:19;10;10;9
70520;PMS5003;58442;52.716;23.560;2023-07-31T08:34:20;10;10;9
70520;PMS5003;58442;52.716;23.560;2023-07-31T08:36:22;8;8;7
70520;PMS5003;58442;52.716;23.560;2023-07-31T08:38:23;8;8;7
70520;PMS5003;58442;52.716;23.560;2023-07-31T08:40:37;9;9;8
70520;PMS5003;58442;52.716;23.560;2023-07-31T08:42:45;8;8;6
70520;PMS5003;58442;52.716;23.560;2023-07-31T08:44:47;10;10;8
70520;PMS5003;58442;52.716;23.560;2023-07-31T08:46:49;14;14;10
70520;PMS5003;58442;52.716;23.560;2023-07-31T08:48:51;16;16;11
70520;PMS5003;58442;52.716;23.560;2023-07-31T08:50:54;8;8;7
70520;PMS5003;58442;52.716;23.560;2023-07-31T08:52:56;15;15;11
70520;PMS5003;58442;52.716;23.560;2023-07-31T08:54:58;35;30;19
70520;PMS5003;58442;52.716;23.560;2023-07-31T08:57:06;17;15;12
70520;PMS5003;58442;52.716;23.560;2023-07-31T08:59:09;26;26;16
70520;PMS5003;58442;52.716;23.560;2023-07-31T09:01:14;13;13;10
70520;PMS5003;58442;52.716;23.560;2023-07-31T09:03:19;13;13;11
70520;PMS5003;58442;52.716;23.560;2023-07-31T09:05:23;10;10;8
70520;PMS5003;58442;52.716;23.560;2023-07-31T09:07:28;13;13;9
70520;PMS5003;58442;52.716;23.560;2023-07-31T09:09:32;16;16;11
70520;PMS5003;58442;52.716;23.560;2023-07-31T09:11:33;12;12;9
70520;PMS5003;58442;52.716;23.560;2023-07-31T09:13:36;33;31;21
70520;PMS5003;58442;52.716;23.560;2023-07-31T09:15:42;19;18;12
70520;PMS5003;58442;52.716;23.560;2023-07-31T09:17:45;18;18;14
70520;PMS5003;58442;52.716;23.560;2023-07-31T09:19:46;12;12;9
70520;PMS5003;58442;52.716;23.560;2023-07-31T09:21:50;16;16;14
70520;PMS5003;58442;52.716;23.560;2023-07-31T09:23:52;12;12;7
70520;PMS5003;58442;52.716;23.560;2023-07-31T09:25:54;7;7;5
70520;PMS5003;58442;52.716;23.560;2023-07-31T09:30:05;9;9;8
70520;PMS5003;58442;52.716;23.560;2023-07-31T09:32:15;11;11;10
70520;PMS5003;58442;52.716;23.560;2023-07-31T09:34:18;9;9;7
70520;PMS5003;58442;52.716;23.560;2023-07-31T09:36:20;8;8;6
70520;PMS5003;58442;52.716;23.560;2023-07-31T09:38:21;7;7;6
70520;PMS5003;58442;52.716;23.560;2023-07-31T09:42:32;8;7;7
70520;PMS5003;58442;52.716;23.560;2023-07-31T09:44:39;6;6;6
70520;PMS5003;58442;52.716;23.560;2023-07-31T09:46:41;13;13;11
70520;PMS5003;58442;52.716;23.560;2023-07-31T09:48:43;8;8;6
70520;PMS5003;58442;52.716;23.560;2023-07-31T09:50:45;7;7;5
70520;PMS5003;58442;52.716;23.560;2023-07-31T09:52:48;9;9;7
70520;PMS5003;58442;52.716;23.560;2023-07-31T09:54:51;8;8;8
70520;PMS5003;58442;52.716;23.560;2023-07-31T09:56:52;13;13;10
70520;PMS5003;58442;52.716;23.560;2023-07-31T09:58:55;8;8;5
70520;PMS5003;58442;52.716;23.560;2023-07-31T10:00:57;8;8;7
70520;PMS5003;58442;52.716;23.560;2023-07-31T10:03:09;8;8;6
70520;PMS5003;58442;52.716;23.560;2023-07-31T10:05:12;6;6;6
70520;PMS5003;58442;52.716;23.560;2023-07-31T10:07:17;8;8;7
70520;PMS5003;58442;52.716;23.560;2023-07-31T10:09:19;6;6;6
70520;PMS5003;58442;52.716;23.560;2023-07-31T10:11:25;13;13;11
70520;PMS5003;58442;52.716;23.560;2023-07-31T10:13:30;11;10;8
70520;PMS5003;58442;52.716;23.560;2023-07-31T10:15:32;6;6;5
70520;PMS5003;58442;52.716;23.560;2023-07-31T10:17:36;7;7;6
70520;PMS5003;58442;52.716;23.560;2023-07-31T10:19:38;7;7;4
70520;PMS5003;58442;52.716;23.560;2023-07-31T10:21:41;17;15;13
70520;PMS5003;58442;52.716;23.560;2023-07-31T10:23:43;14;14;10
70520;PMS5003;58442;52.716;23.560;2023-07-31T10:25:45;18;18;13
70520;PMS5003;58442;52.716;23.560;2023-07-31T10:27:51;9;9;8
70520;PMS5003;58442;52.716;23.560;2023-07-31T10:29:55;6;6;6
70520;PMS5003;58442;52.716;23.560;2023-07-31T10:31:58;10;10;8
70520;PMS5003;58442;52.716;23.560;2023-07-31T10:34:00;11;11;8
70520;PMS5003;58442;52.716;23.560;2023-07-31T10:36:12;9;9;9
70520;PMS5003;58442;52.716;23.560;2023-07-31T10:38:16;9;9;7
70520;PMS5003;58442;52.716;23.560;2023-07-31T10:40:18;13;12;8
70520;PMS5003;58442;52.716;23.560;2023-07-31T10:42:27;13;13;8
70520;PMS5003;58442;52.716;23.560;2023-07-31T10:44:31;10;9;8
70520;PMS5003;58442;52.716;23.560;2023-07-31T10:46:42;10;10;8
70520;PMS5003;58442;52.716;23.560;2023-07-31T10:48:46;8;8;7
70520;PMS5003;58442;52.716;23.560;2023-07-31T10:51:00;4;4;4
70520;PMS5003;58442;52.716;23.560;2023-07-31T10:53:01;7;7;6
70520;PMS5003;58442;52.716;23.560;2023-07-31T10:57:25;10;10;8
70520;PMS5003;58442;52.716;23.560;2023-07-31T10:59:26;8;8;7
70520;PMS5003;58442;52.716;23.560;2023-07-31T11:01:50;17;17;13
70520;PMS5003;58442;52.716;23.560;2023-07-31T11:05:53;6;6;5
70520;PMS5003;58442;52.716;23.560;2023-07-31T11:08:04;9;9;7
70520;PMS5003;58442;52.716;23.560;2023-07-31T11:10:22;20;20;16
70520;PMS5003;58442;52.716;23.560;2023-07-31T11:12:26;13;13;11
70520;PMS5003;58442;52.716;23.560;2023-07-31T11:14:27;7;7;6
70520;PMS5003;58442;52.716;23.560;2023-07-31T11:16:29;10;10;8
70520;PMS5003;58442;52.716;23.560;2023-07-31T11:18:38;8;8;6
70520;PMS5003;58442;52.716;23.560;2023-07-31T11:20:42;8;8;7
70520;PMS5003;58442;52.716;23.560;2023-07-31T11:22:43;13;13;11
70520;PMS5003;58442;52.716;23.560;2023-07-31T11:24:45;9;9;6
70520;PMS5003;58442;52.716;23.560;2023-07-31T11:26:52;5;5;4
70520;PMS5003;58442;52.716;23.560;2023-07-31T11:28:53;6;6;5
70520;PMS5003;58442;52.716;23.560;2023-07-31T11:30:55;2;2;2
70520;PMS5003;58442;52.716;23.560;2023-07-31T11:32:57;5;5;4
70520;PMS5003;58442;52.716;23.560;2023-07-31T11:35:06;4;4;4
70520;PMS5003;58442;52.716;23.560;2023-07-31T11:37:09;6;6;5
70520;PMS5003;58442;52.716;23.560;2023-07-31T11:39:10;6;6;4
70520;PMS5003;58442;52.716;23.560;2023-07-31T11:41:13;17;17;9
70520;PMS5003;58442;52.716;23.560;2023-07-31T11:43:21;11;11;9
70520;PMS5003;58442;52.716;23.560;2023-07-31T11:45:24;6;6;5
70520;PMS5003;58442;52.716;23.560;2023-07-31T11:47:28;5;5;4
70520;PMS5003;58442;52.716;23.560;2023-07-31T11:49:31;5;5;4
70520;PMS5003;58442;52.716;23.560;2023-07-31T11:51:35;7;7;5
70520;PMS5003;58442;52.716;23.560;2023-07-31T11:53:44;6;6;5
70520;PMS5003;58442;52.716;23.560;2023-07-31T11:55:48;8;8;6
70520;PMS5003;58442;52.716;23.560;2023-07-31T11:57:51;8;8;6
70520;PMS5003;58442;52.716;23.560;2023-07-31T11:59:55;8;8;7
70520;PMS5003;58442;52.716;23.560;2023-07-31T12:01:57;3;3;3
70520;PMS5003;58442;52.716;23.560;2023-07-31T12:03:59;6;6;5
70520;PMS5003;58442;52.716;23.560;2023-07-31T12:06:01;4;4;4
70520;PMS5003;58442;52.716;23.560;2023-07-31T12:08:10;5;5;4
70520;PMS5003;58442;52.716;23.560;2023-07-31T12:12:26;6;6;5
70520;PMS5003;58442;52.716;23.560;2023-07-31T12:14:27;8;8;6
70520;PMS5003;58442;52.716;23.560;2023-07-31T12:16:33;3;3;3
70520;PMS5003;58442;52.716;23.560;2023-07-31T12:18:35;5;5;4
70520;PMS5003;58442;52.716;23.560;2023-07-31T12:20:41;7;7;5
70520;PMS5003;58442;52.716;23.560;2023-07-31T12:22:44;3;3;3
70520;PMS5003;58442;52.716;23.560;2023-07-31T12:24:46;3;3;3
70520;PMS5003;58442;52.716;23.560;2023-07-31T12:26:48;4;4;4
70520;PMS5003;58442;52.716;23.560;2023-07-31T12:28:50;5;5;5
70520;PMS5003;58442;52.716;23.560;2023-07-31T12:30:58;5;5;5
70520;PMS5003;58442;52.716;23.560;2023-07-31T12:33:05;4;4;4
70520;PMS5003;58442;52.716;23.560;2023-07-31T12:35:07;2;2;2
70520;PMS5003;58442;52.716;23.560;2023-07-31T12:37:10;4;4;3
70520;PMS5003;58442;52.716;23.560;2023-07-31T12:39:11;4;4;4
70520;PMS5003;58442;52.716;23.560;2023-07-31T12:41:14;5;5;4
70520;PMS5003;58442;52.716;23.560;2023-07-31T12:43:15;4;4;3
70520;PMS5003;58442;52.716;23.560;2023-07-31T12:45:16;3;3;3
70520;PMS5003;58442;52.716;23.560;2023-07-31T12:47:18;4;4;4
70520;PMS5003;58442;52.716;23.560;2023-07-31T12:49:28;2;2;2
70520;PMS5003;58442;52.716;23.560;2023-07-31T12:51:30;5;5;5
70520;PMS5003;58442;52.716;23.560;2023-07-31T12:53:31;4;4;4
70520;PMS5003;58442;52.716;23.560;2023-07-31T12:55:33;2;2;2
70520;PMS5003;58442;52.716;23.560;2023-07-31T12:57:43;3;3;3
70520;PMS5003;58442;52.716;23.560;2023-07-31T12:59:44;3;3;3
70520;PMS5003;58442;52.716;23.560;2023-07-31T13:01:45;5;5;4
70520;PMS5003;58442;52.716;23.560;2023-07-31T13:03:46;4;4;4
70520;PMS5003;58442;52.716;23.560;2023-07-31T13:05:57;3;3;3
70520;PMS5003;58442;52.716;23.560;2023-07-31T13:07:59;3;3;3
70520;PMS5003;58442;52.716;23.560;2023-07-31T13:10:00;3;3;3
70520;PMS5003;58442;52.716;23.560;2023-07-31T13:12:01;5;5;5
70520;PMS5003;58442;52.716;23.560;2023-07-31T13:14:12;3;3;3
70520;PMS5003;58442;52.716;23.560;2023-07-31T13:16:13;4;4;2
70520;PMS5003;58442;52.716;23.560;2023-07-31T13:18:15;4;4;3
70520;PMS5003;58442;52.716;23.560;2023-07-31T13:20:16;3;3;3
70520;PMS5003;58442;52.716;23.560;2023-07-31T13:22:26;3;3;2
70520;PMS5003;58442;52.716;23.560;2023-07-31T13:24:28;3;3;3
70520;PMS5003;58442;52.716;23.560;2023-07-31T13:26:29;3;3;2
70520;PMS5003;58442;52.716;23.560;2023-07-31T13:28:30;4;4;3
70520;PMS5003;58442;52.716;23.560;2023-07-31T13:30:41;3;3;3
70520;PMS5003;58442;52.716;23.560;2023-07-31T13:32:42;3;3;3
70520;PMS5003;58442;52.716;23.560;2023-07-31T13:34:44;2;2;2
70520;PMS5003;58442;52.716;23.560;2023-07-31T13:36:45;4;4;4
70520;PMS5003;58442;52.716;23.560;2023-07-31T13:38:56;4;4;3
70520;PMS5003;58442;52.716;23.560;2023-07-31T13:40:57;3;3;3
70520;PMS5003;58442;52.716;23.560;2023-07-31T13:42:59;2;2;2
70520;PMS5003;58442;52.716;23.560;2023-07-31T13:45:06;3;3;2
70520;PMS5003;58442;52.716;23.560;2023-07-31T13:47:10;3;3;2
70520;PMS5003;58442;52.716;23.560;2023-07-31T13:49:11;3;3;3
70520;PMS5003;58442;52.716;23.560;2023-07-31T13:51:13;4;4;4
70520;PMS5003;58442;52.716;23.560;2023-07-31T13:53:14;2;2;2
70520;PMS5003;58442;52.716;23.560;2023-07-31T13:55:25;4;4;4